sensor_id;sensor_type;location;lat;lon;timestamp;temperature;humidity
80560;DHT22;70065;42.700;23.316;2023-07-30T00:00:42;31.80;30.00
80560;DHT22;70065;42.700;23.316;2023-07-30T00:03:08;31.90;30.00
80560;DHT22;70065;42.700;23.316;2023-07-30T00:05:35;31.80;30.10
80560;DHT22;70065;42.700;23.316;2023-07-30T00:08:00;31.80;30.10
80560;DHT22;70065;42.700;23.316;2023-07-30T00:10:26;31.80;30.10
80560;DHT22;70065;42.700;23.316;2023-07-30T00:12:52;31.80;30.20
80560;DHT22;70065;42.700;23.316;2023-07-30T00:15:17;31.80;30.10
80560;DHT22;70065;42.700;23.316;2023-07-30T00:17:43;31.80;31.10
80560;DHT22;70065;42.700;23.316;2023-07-30T00:20:09;31.80;30.20
80560;DHT22;70065;42.700;23.316;2023-07-30T00:22:35;31.80;30.20
80560;DHT22;70065;42.700;23.316;2023-07-30T00:25:01;31.80;30.20
80560;DHT22;70065;42.700;23.316;2023-07-30T00:27:27;31.80;30.20
80560;DHT22;70065;42.700;23.316;2023-07-30T00:29:52;31.80;30.30
80560;DHT22;70065;42.700;23.316;2023-07-30T00:32:18;31.80;30.10
80560;DHT22;70065;42.700;23.316;2023-07-30T00:34:44;31.80;30.30
80560;DHT22;70065;42.700;23.316;2023-07-30T00:37:09;31.80;30.30
80560;DHT22;70065;42.700;23.316;2023-07-30T00:39:35;31.70;30.20
80560;DHT22;70065;42.700;23.316;2023-07-30T00:42:01;31.80;30.30
80560;DHT22;70065;42.700;23.316;2023-07-30T00:44:27;31.70;30.30
80560;DHT22;70065;42.700;23.316;2023-07-30T00:46:53;31.70;30.30
80560;DHT22;70065;42.700;23.316;2023-07-30T00:49:18;31.70;30.40
80560;DHT22;70065;42.700;23.316;2023-07-30T00:51:44;31.70;30.40
80560;DHT22;70065;42.700;23.316;2023-07-30T00:54:11;31.70;30.40
80560;DHT22;70065;42.700;23.316;2023-07-30T00:56:37;31.70;30.50
80560;DHT22;70065;42.700;23.316;2023-07-30T00:59:03;31.70;30.50
80560;DHT22;70065;42.700;23.316;2023-07-30T01:01:33;31.70;30.50
80560;DHT22;70065;42.700;23.316;2023-07-30T01:04:01;31.60;30.40
80560;DHT22;70065;42.700;23.316;2023-07-30T01:06:27;31.60;30.40
80560;DHT22;70065;42.700;23.316;2023-07-30T01:08:53;31.70;30.50
80560;DHT22;70065;42.700;23.316;2023-07-30T01:11:19;31.70;30.60
80560;DHT22;70065;42.700;23.316;2023-07-30T01:13:45;31.60;30.50
80560;DHT22;70065;42.700;23.316;2023-07-30T01:16:11;31.60;30.60
80560;DHT22;70065;42.700;23.316;2023-07-30T01:18:37;31.60;30.60
80560;DHT22;70065;42.700;23.316;2023-07-30T01:21:03;31.60;30.60
80560;DHT22;70065;42.700;23.316;2023-07-30T01:23:28;31.60;30.70
80560;DHT22;70065;42.700;23.316;2023-07-30T01:26:02;31.60;30.70
80560;DHT22;70065;42.700;23.316;2023-07-30T01:28:36;31.60;30.60
80560;DHT22;70065;42.700;23.316;2023-07-30T01:31:03;31.60;30.70
80560;DHT22;70065;42.700;23.316;2023-07-30T01:33:30;31.60;30.80
80560;DHT22;70065;42.700;23.316;2023-07-30T01:35:57;31.60;30.90
80560;DHT22;70065;42.700;23.316;2023-07-30T01:38:25;31.60;30.80
80560;DHT22;70065;42.700;23.316;2023-07-30T01:40:51;31.60;30.90
80560;DHT22;70065;42.700;23.316;2023-07-30T01:43:17;31.60;30.90
80560;DHT22;70065;42.700;23.316;2023-07-30T01:45:43;31.50;30.80
80560;DHT22;70065;42.700;23.316;2023-07-30T01:48:09;31.50;30.80
80560;DHT22;70065;42.700;23.316;2023-07-30T01:50:35;31.50;30.90
80560;DHT22;70065;42.700;23.316;2023-07-30T01:53:00;31.50;30.90
80560;DHT22;70065;42.700;23.316;2023-07-30T01:55:26;31.50;31.00
80560;DHT22;70065;42.700;23.316;2023-07-30T01:57:51;31.50;31.00
80560;DHT22;70065;42.700;23.316;2023-07-30T02:00:17;31.50;30.90
80560;DHT22;70065;42.700;23.316;2023-07-30T02:02:43;31.50;31.00
80560;DHT22;70065;42.700;23.316;2023-07-30T02:05:09;31.50;31.00
80560;DHT22;70065;42.700;23.316;2023-07-30T02:07:34;31.50;31.00
80560;DHT22;70065;42.700;23.316;2023-07-30T02:10:00;31.50;31.00
80560;DHT22;70065;42.700;23.316;2023-07-30T02:12:26;31.50;31.10
80560;DHT22;70065;42.700;23.316;2023-07-30T02:14:51;31.50;31.10
80560;DHT22;70065;42.700;23.316;2023-07-30T02:17:17;31.50;31.10
80560;DHT22;70065;42.700;23.316;2023-07-30T02:19:44;31.50;31.10
80560;DHT22;70065;42.700;23.316;2023-07-30T02:22:09;31.50;31.20
80560;DHT22;70065;42.700;23.316;2023-07-30T02:24:35;31.50;31.20
80560;DHT22;70065;42.700;23.316;2023-07-30T02:27:01;31.40;31.20
80560;DHT22;70065;42.700;23.316;2023-07-30T02:29:27;31.40;31.20
80560;DHT22;70065;42.700;23.316;2023-07-30T02:31:54;31.40;31.20
80560;DHT22;70065;42.700;23.316;2023-07-30T02:34:19;31.40;31.20
80560;DHT22;70065;42.700;23.316;2023-07-30T02:36:46;31.40;31.30
80560;DHT22;70065;42.700;23.316;2023-07-30T02:39:12;31.40;31.40
80560;DHT22;70065;42.700;23.316;2023-07-30T02:41:38;31.40;31.30
80560;DHT22;70065;42.700;23.316;2023-07-30T02:44:04;31.40;31.40
80560;DHT22;70065;42.700;23.316;2023-07-30T02:46:29;31.40;31.30
80560;DHT22;70065;42.700;23.316;2023-07-30T02:48:55;31.40;31.40
80560;DHT22;70065;42.700;23.316;2023-07-30T02:51:21;31.40;31.50
80560;DHT22;70065;42.700;23.316;2023-07-30T02:53:46;31.40;31.40
80560;DHT22;70065;42.700;23.316;2023-07-30T02:56:12;31.30;31.50
80560;DHT22;70065;42.700;23.316;2023-07-30T02:58:38;31.30;31.40
80560;DHT22;70065;42.700;23.316;2023-07-30T03:01:07;31.40;31.50
80560;DHT22;70065;42.700;23.316;2023-07-30T03:03:33;31.40;31.50
80560;DHT22;70065;42.700;23.316;2023-07-30T03:05:59;31.40;31.50
80560;DHT22;70065;42.700;23.316;2023-07-30T03:08:25;31.30;31.50
80560;DHT22;70065;42.700;23.316;2023-07-30T03:10:50;31.40;31.60
80560;DHT22;70065;42.700;23.316;2023-07-30T03:13:16;31.40;31.60
80560;DHT22;70065;42.700;23.316;2023-07-30T03:15:42;31.40;31.60
80560;DHT22;70065;42.700;23.316;2023-07-30T03:18:08;31.40;31.40
80560;DHT22;70065;42.700;23.316;2023-07-30T03:20:33;31.30;31.60
80560;DHT22;70065;42.700;23.316;2023-07-30T03:22:59;31.30;31.60
80560;DHT22;70065;42.700;23.316;2023-07-30T03:25:25;31.30;31.50
80560;DHT22;70065;42.700;23.316;2023-07-30T03:27:50;31.40;31.60
80560;DHT22;70065;42.700;23.316;2023-07-30T03:30:16;31.40;31.60
80560;DHT22;70065;42.700;23.316;2023-07-30T03:32:42;31.40;31.50
80560;DHT22;70065;42.700;23.316;2023-07-30T03:35:08;31.40;31.40
80560;DHT22;70065;42.700;23.316;2023-07-30T03:37:33;31.50;31.60
80560;DHT22;70065;42.700;23.316;2023-07-30T03:39:59;31.50;31.50
80560;DHT22;70065;42.700;23.316;2023-07-30T03:42:25;31.50;31.40
80560;DHT22;70065;42.700;23.316;2023-07-30T03:44:50;31.60;31.20
80560;DHT22;70065;42.700;23.316;2023-07-30T03:47:16;31.50;31.30
80560;DHT22;70065;42.700;23.316;2023-07-30T03:49:42;31.60;31.30
80560;DHT22;70065;42.700;23.316;2023-07-30T03:52:07;31.60;31.20
80560;DHT22;70065;42.700;23.316;2023-07-30T03:54:51;31.70;31.20
80560;DHT22;70065;42.700;23.316;2023-07-30T03:57:17;31.70;31.20
80560;DHT22;70065;42.700;23.316;2023-07-30T03:59:43;31.80;31.00
80560;DHT22;70065;42.700;23.316;2023-07-30T04:02:08;32.00;30.80
80560;DHT22;70065;42.700;23.316;2023-07-30T04:04:35;32.80;30.00
80560;DHT22;70065;42.700;23.316;2023-07-30T04:07:01;33.70;29.20
80560;DHT22;70065;42.700;23.316;2023-07-30T04:09:26;34.70;28.30
80560;DHT22;70065;42.700;23.316;2023-07-30T04:11:52;35.70;27.30
80560;DHT22;70065;42.700;23.316;2023-07-30T04:14:18;36.60;26.50
80560;DHT22;70065;42.700;23.316;2023-07-30T04:16:44;37.50;25.70
80560;DHT22;70065;42.700;23.316;2023-07-30T04:19:12;38.20;24.80
80560;DHT22;70065;42.700;23.316;2023-07-30T04:21:38;39.00;24.30
80560;DHT22;70065;42.700;23.316;2023-07-30T04:24:03;39.70;23.70
80560;DHT22;70065;42.700;23.316;2023-07-30T04:26:31;40.40;23.20
80560;DHT22;70065;42.700;23.316;2023-07-30T04:28:56;41.00;22.50
80560;DHT22;70065;42.700;23.316;2023-07-30T04:31:22;41.60;22.10
80560;DHT22;70065;42.700;23.316;2023-07-30T04:33:47;42.10;21.60
80560;DHT22;70065;42.700;23.316;2023-07-30T04:36:13;42.60;21.20
80560;DHT22;70065;42.700;23.316;2023-07-30T04:38:39;43.20;20.80
80560;DHT22;70065;42.700;23.316;2023-07-30T04:41:04;43.70;21.20
80560;DHT22;70065;42.700;23.316;2023-07-30T04:43:30;44.10;20.80
80560;DHT22;70065;42.700;23.316;2023-07-30T04:45:56;44.60;19.70
80560;DHT22;70065;42.700;23.316;2023-07-30T04:48:22;45.10;19.40
80560;DHT22;70065;42.700;23.316;2023-07-30T04:50:47;45.50;19.00
80560;DHT22;70065;42.700;23.316;2023-07-30T04:53:13;46.00;18.80
80560;DHT22;70065;42.700;23.316;2023-07-30T04:55:39;46.40;18.50
80560;DHT22;70065;42.700;23.316;2023-07-30T04:58:04;46.90;18.30
80560;DHT22;70065;42.700;23.316;2023-07-30T05:00:30;47.20;17.90
80560;DHT22;70065;42.700;23.316;2023-07-30T05:02:56;47.60;17.80
80560;DHT22;70065;42.700;23.316;2023-07-30T05:05:23;48.00;17.60
80560;DHT22;70065;42.700;23.316;2023-07-30T05:07:50;48.30;17.30
80560;DHT22;70065;42.700;23.316;2023-07-30T05:10:15;48.60;17.10
80560;DHT22;70065;42.700;23.316;2023-07-30T05:12:41;48.90;16.90
80560;DHT22;70065;42.700;23.316;2023-07-30T05:15:07;49.20;16.70
80560;DHT22;70065;42.700;23.316;2023-07-30T05:17:34;49.50;16.60
80560;DHT22;70065;42.700;23.316;2023-07-30T05:19:59;49.70;16.40
80560;DHT22;70065;42.700;23.316;2023-07-30T05:22:25;50.00;16.30
80560;DHT22;70065;42.700;23.316;2023-07-30T05:24:51;50.20;16.20
80560;DHT22;70065;42.700;23.316;2023-07-30T05:27:16;50.40;16.00
80560;DHT22;70065;42.700;23.316;2023-07-30T05:29:42;50.60;15.80
80560;DHT22;70065;42.700;23.316;2023-07-30T05:32:08;50.90;15.80
80560;DHT22;70065;42.700;23.316;2023-07-30T05:34:34;51.00;15.60
80560;DHT22;70065;42.700;23.316;2023-07-30T05:37:00;51.20;15.50
80560;DHT22;70065;42.700;23.316;2023-07-30T05:39:26;51.30;15.40
80560;DHT22;70065;42.700;23.316;2023-07-30T05:41:51;51.50;15.40
80560;DHT22;70065;42.700;23.316;2023-07-30T05:44:17;51.70;15.30
80560;DHT22;70065;42.700;23.316;2023-07-30T05:46:43;51.80;15.10
80560;DHT22;70065;42.700;23.316;2023-07-30T05:49:09;51.90;15.10
80560;DHT22;70065;42.700;23.316;2023-07-30T05:51:35;52.10;15.00
80560;DHT22;70065;42.700;23.316;2023-07-30T05:54:01;52.20;15.00
80560;DHT22;70065;42.700;23.316;2023-07-30T05:56:27;52.30;14.90
80560;DHT22;70065;42.700;23.316;2023-07-30T05:58:53;52.30;14.80
80560;DHT22;70065;42.700;23.316;2023-07-30T06:01:19;52.40;14.80
80560;DHT22;70065;42.700;23.316;2023-07-30T06:03:45;52.50;14.70
80560;DHT22;70065;42.700;23.316;2023-07-30T06:06:11;52.60;14.70
80560;DHT22;70065;42.700;23.316;2023-07-30T06:08:36;52.60;14.70
80560;DHT22;70065;42.700;23.316;2023-07-30T06:11:02;52.70;14.70
80560;DHT22;70065;42.700;23.316;2023-07-30T06:13:30;52.70;14.60
80560;DHT22;70065;42.700;23.316;2023-07-30T06:15:56;52.60;14.60
80560;DHT22;70065;42.700;23.316;2023-07-30T06:18:21;52.70;14.60
80560;DHT22;70065;42.700;23.316;2023-07-30T06:20:47;52.60;15.30
80560;DHT22;70065;42.700;23.316;2023-07-30T06:23:13;52.60;14.60
80560;DHT22;70065;42.700;23.316;2023-07-30T06:25:39;52.60;14.50
80560;DHT22;70065;42.700;23.316;2023-07-30T06:28:05;52.50;14.50
80560;DHT22;70065;42.700;23.316;2023-07-30T06:30:32;52.50;14.50
80560;DHT22;70065;42.700;23.316;2023-07-30T06:32:58;52.40;14.50
80560;DHT22;70065;42.700;23.316;2023-07-30T06:35:23;52.30;14.50
80560;DHT22;70065;42.700;23.316;2023-07-30T06:37:50;52.20;14.50
80560;DHT22;70065;42.700;23.316;2023-07-30T06:40:16;52.20;14.60
80560;DHT22;70065;42.700;23.316;2023-07-30T06:42:41;52.00;14.70
80560;DHT22;70065;42.700;23.316;2023-07-30T06:45:08;51.80;14.70
80560;DHT22;70065;42.700;23.316;2023-07-30T06:47:35;51.60;14.70
80560;DHT22;70065;42.700;23.316;2023-07-30T06:50:01;51.50;14.80
80560;DHT22;70065;42.700;23.316;2023-07-30T06:52:26;51.30;14.80
80560;DHT22;70065;42.700;23.316;2023-07-30T06:54:52;51.20;15.00
80560;DHT22;70065;42.700;23.316;2023-07-30T06:57:18;50.90;15.00
80560;DHT22;70065;42.700;23.316;2023-07-30T06:59:43;50.80;15.20
80560;DHT22;70065;42.700;23.316;2023-07-30T07:02:09;50.50;15.20
80560;DHT22;70065;42.700;23.316;2023-07-30T07:04:35;50.20;15.30
80560;DHT22;70065;42.700;23.316;2023-07-30T07:07:00;50.10;15.40
80560;DHT22;70065;42.700;23.316;2023-07-30T07:09:29;49.90;15.60
80560;DHT22;70065;42.700;23.316;2023-07-30T07:11:55;49.60;15.50
80560;DHT22;70065;42.700;23.316;2023-07-30T07:14:20;49.50;15.70
80560;DHT22;70065;42.700;23.316;2023-07-30T07:16:46;49.30;16.60
80560;DHT22;70065;42.700;23.316;2023-07-30T07:19:14;49.10;15.90
80560;DHT22;70065;42.700;23.316;2023-07-30T07:21:40;49.00;16.60
80560;DHT22;70065;42.700;23.316;2023-07-30T07:24:05;48.90;16.10
80560;DHT22;70065;42.700;23.316;2023-07-30T07:26:31;48.70;16.10
80560;DHT22;70065;42.700;23.316;2023-07-30T07:28:57;48.70;16.20
80560;DHT22;70065;42.700;23.316;2023-07-30T07:31:22;48.50;16.20
80560;DHT22;70065;42.700;23.316;2023-07-30T07:33:48;48.40;16.40
80560;DHT22;70065;42.700;23.316;2023-07-30T07:36:16;48.30;16.50
80560;DHT22;70065;42.700;23.316;2023-07-30T07:38:41;48.20;16.50
80560;DHT22;70065;42.700;23.316;2023-07-30T07:41:09;48.00;16.60
80560;DHT22;70065;42.700;23.316;2023-07-30T07:43:39;47.90;16.70
80560;DHT22;70065;42.700;23.316;2023-07-30T07:46:04;47.80;16.80
80560;DHT22;70065;42.700;23.316;2023-07-30T07:48:35;47.80;16.90
80560;DHT22;70065;42.700;23.316;2023-07-30T07:51:01;47.70;16.80
80560;DHT22;70065;42.700;23.316;2023-07-30T07:53:27;47.70;16.90
80560;DHT22;70065;42.700;23.316;2023-07-30T07:55:53;47.80;17.00
80560;DHT22;70065;42.700;23.316;2023-07-30T07:58:19;47.80;17.00
80560;DHT22;70065;42.700;23.316;2023-07-30T08:00:44;47.80;17.00
80560;DHT22;70065;42.700;23.316;2023-07-30T08:03:10;47.90;16.90
80560;DHT22;70065;42.700;23.316;2023-07-30T08:05:36;48.00;16.90
80560;DHT22;70065;42.700;23.316;2023-07-30T08:08:02;48.10;16.70
80560;DHT22;70065;42.700;23.316;2023-07-30T08:10:28;48.30;16.60
80560;DHT22;70065;42.700;23.316;2023-07-30T08:12:53;48.50;16.50
80560;DHT22;70065;42.700;23.316;2023-07-30T08:15:19;48.80;16.40
80560;DHT22;70065;42.700;23.316;2023-07-30T08:17:45;49.10;16.20
80560;DHT22;70065;42.700;23.316;2023-07-30T08:20:11;49.30;16.00
80560;DHT22;70065;42.700;23.316;2023-07-30T08:22:36;49.60;15.90
80560;DHT22;70065;42.700;23.316;2023-07-30T08:25:02;49.80;15.70
80560;DHT22;70065;42.700;23.316;2023-07-30T08:27:32;50.10;15.70
80560;DHT22;70065;42.700;23.316;2023-07-30T08:29:58;50.20;15.50
80560;DHT22;70065;42.700;23.316;2023-07-30T08:32:24;50.10;15.60
80560;DHT22;70065;42.700;23.316;2023-07-30T08:34:50;49.90;15.70
80560;DHT22;70065;42.700;23.316;2023-07-30T08:37:16;49.60;15.90
80560;DHT22;70065;42.700;23.316;2023-07-30T08:39:43;49.20;16.10
80560;DHT22;70065;42.700;23.316;2023-07-30T08:42:09;48.80;16.40
80560;DHT22;70065;42.700;23.316;2023-07-30T08:44:35;48.20;16.70
80560;DHT22;70065;42.700;23.316;2023-07-30T08:47:01;47.60;17.10
80560;DHT22;70065;42.700;23.316;2023-07-30T08:49:27;46.90;17.50
80560;DHT22;70065;42.700;23.316;2023-07-30T08:51:58;46.20;17.80
80560;DHT22;70065;42.700;23.316;2023-07-30T08:54:29;45.60;18.30
80560;DHT22;70065;42.700;23.316;2023-07-30T08:56:56;44.90;18.70
80560;DHT22;70065;42.700;23.316;2023-07-30T08:59:23;44.30;19.10
80560;DHT22;70065;42.700;23.316;2023-07-30T09:01:51;43.80;19.50
80560;DHT22;70065;42.700;23.316;2023-07-30T09:04:20;43.20;19.70
80560;DHT22;70065;42.700;23.316;2023-07-30T09:06:50;42.80;20.00
80560;DHT22;70065;42.700;23.316;2023-07-30T09:09:16;42.50;20.30
80560;DHT22;70065;42.700;23.316;2023-07-30T09:11:42;42.20;20.50
80560;DHT22;70065;42.700;23.316;2023-07-30T09:14:08;42.00;20.80
80560;DHT22;70065;42.700;23.316;2023-07-30T09:16:36;41.70;21.00
80560;DHT22;70065;42.700;23.316;2023-07-30T09:19:02;41.50;21.20
80560;DHT22;70065;42.700;23.316;2023-07-30T09:21:32;41.30;21.30
80560;DHT22;70065;42.700;23.316;2023-07-30T09:24:02;41.10;21.50
80560;DHT22;70065;42.700;23.316;2023-07-30T09:26:41;40.90;21.60
80560;DHT22;70065;42.700;23.316;2023-07-30T09:29:09;40.70;21.80
80560;DHT22;70065;42.700;23.316;2023-07-30T09:31:51;40.50;21.90
80560;DHT22;70065;42.700;23.316;2023-07-30T09:34:21;40.40;22.10
80560;DHT22;70065;42.700;23.316;2023-07-30T09:36:53;40.20;22.20
80560;DHT22;70065;42.700;23.316;2023-07-30T09:39:26;40.00;22.30
80560;DHT22;70065;42.700;23.316;2023-07-30T09:41:59;39.90;23.20
80560;DHT22;70065;42.700;23.316;2023-07-30T09:44:25;39.70;23.40
80560;DHT22;70065;42.700;23.316;2023-07-30T09:46:51;39.60;22.80
80560;DHT22;70065;42.700;23.316;2023-07-30T09:49:17;39.40;22.90
80560;DHT22;70065;42.700;23.316;2023-07-30T09:51:44;39.20;23.00
80560;DHT22;70065;42.700;23.316;2023-07-30T09:54:13;39.10;23.20
80560;DHT22;70065;42.700;23.316;2023-07-30T09:56:40;38.90;23.40
80560;DHT22;70065;42.700;23.316;2023-07-30T09:59:07;38.80;24.30
80560;DHT22;70065;42.700;23.316;2023-07-30T10:01:38;38.60;23.60
80560;DHT22;70065;42.700;23.316;2023-07-30T10:04:08;38.40;23.70
80560;DHT22;70065;42.700;23.316;2023-07-30T10:06:47;38.30;23.80
80560;DHT22;70065;42.700;23.316;2023-07-30T10:09:19;38.10;23.90
80560;DHT22;70065;42.700;23.316;2023-07-30T10:11:46;37.90;24.20
80560;DHT22;70065;42.700;23.316;2023-07-30T10:14:15;37.80;24.30
80560;DHT22;70065;42.700;23.316;2023-07-30T10:16:51;37.80;24.50
80560;DHT22;70065;42.700;23.316;2023-07-30T10:19:17;37.70;24.40
80560;DHT22;70065;42.700;23.316;2023-07-30T10:21:44;37.60;24.50
80560;DHT22;70065;42.700;23.316;2023-07-30T10:24:09;37.50;24.70
80560;DHT22;70065;42.700;23.316;2023-07-30T10:26:35;37.40;24.70
80560;DHT22;70065;42.700;23.316;2023-07-30T10:29:20;37.30;24.70
80560;DHT22;70065;42.700;23.316;2023-07-30T10:31:56;37.30;24.90
80560;DHT22;70065;42.700;23.316;2023-07-30T10:34:26;37.20;25.00
80560;DHT22;70065;42.700;23.316;2023-07-30T10:36:55;37.10;25.00
80560;DHT22;70065;42.700;23.316;2023-07-30T10:39:27;37.10;25.10
80560;DHT22;70065;42.700;23.316;2023-07-30T10:41:56;37.00;25.10
80560;DHT22;70065;42.700;23.316;2023-07-30T10:44:26;37.00;25.20
80560;DHT22;70065;42.700;23.316;2023-07-30T10:46:56;37.00;25.30
80560;DHT22;70065;42.700;23.316;2023-07-30T10:49:23;37.00;25.30
80560;DHT22;70065;42.700;23.316;2023-07-30T10:51:51;36.90;25.30
80560;DHT22;70065;42.700;23.316;2023-07-30T10:54:19;36.90;25.40
80560;DHT22;70065;42.700;23.316;2023-07-30T10:56:45;36.80;25.40
80560;DHT22;70065;42.700;23.316;2023-07-30T10:59:13;36.80;25.40
80560;DHT22;70065;42.700;23.316;2023-07-30T11:01:41;36.80;25.50
80560;DHT22;70065;42.700;23.316;2023-07-30T11:04:14;36.70;25.50
80560;DHT22;70065;42.700;23.316;2023-07-30T11:06:48;36.70;25.50
80560;DHT22;70065;42.700;23.316;2023-07-30T11:09:22;36.70;25.50
80560;DHT22;70065;42.700;23.316;2023-07-30T11:11:48;36.70;25.50
80560;DHT22;70065;42.700;23.316;2023-07-30T11:14:15;36.70;25.60
80560;DHT22;70065;42.700;23.316;2023-07-30T11:16:51;36.60;25.60
80560;DHT22;70065;42.700;23.316;2023-07-30T11:19:29;36.60;25.60
80560;DHT22;70065;42.700;23.316;2023-07-30T11:21:57;36.60;25.70
80560;DHT22;70065;42.700;23.316;2023-07-30T11:24:33;36.50;25.60
80560;DHT22;70065;42.700;23.316;2023-07-30T11:27:01;36.60;25.70
80560;DHT22;70065;42.700;23.316;2023-07-30T11:29:27;36.50;25.70
80560;DHT22;70065;42.700;23.316;2023-07-30T11:31:57;36.50;25.70
80560;DHT22;70065;42.700;23.316;2023-07-30T11:34:24;36.50;25.70
80560;DHT22;70065;42.700;23.316;2023-07-30T11:36:52;36.50;25.70
80560;DHT22;70065;42.700;23.316;2023-07-30T11:39:19;36.50;25.80
80560;DHT22;70065;42.700;23.316;2023-07-30T11:41:45;36.50;25.80
80560;DHT22;70065;42.700;23.316;2023-07-30T11:44:34;36.50;25.80
80560;DHT22;70065;42.700;23.316;2023-07-30T11:47:02;36.50;25.70
80560;DHT22;70065;42.700;23.316;2023-07-30T11:49:29;36.50;25.80
80560;DHT22;70065;42.700;23.316;2023-07-30T11:52:09;36.50;25.80
80560;DHT22;70065;42.700;23.316;2023-07-30T11:54:35;36.50;25.70
80560;DHT22;70065;42.700;23.316;2023-07-30T11:57:02;36.50;25.80
80560;DHT22;70065;42.700;23.316;2023-07-30T11:59:32;36.50;25.70
80560;DHT22;70065;42.700;23.316;2023-07-30T12:02:01;36.50;25.60
80560;DHT22;70065;42.700;23.316;2023-07-30T12:04:30;36.50;25.70
80560;DHT22;70065;42.700;23.316;2023-07-30T12:06:56;36.60;25.60
80560;DHT22;70065;42.700;23.316;2023-07-30T12:09:23;36.60;25.70
80560;DHT22;70065;42.700;23.316;2023-07-30T12:11:55;36.60;25.70
80560;DHT22;70065;42.700;23.316;2023-07-30T12:14:44;36.60;25.60
80560;DHT22;70065;42.700;23.316;2023-07-30T12:17:17;36.70;25.60
80560;DHT22;70065;42.700;23.316;2023-07-30T12:19:43;36.60;25.60
80560;DHT22;70065;42.700;23.316;2023-07-30T12:22:09;36.60;25.60
80560;DHT22;70065;42.700;23.316;2023-07-30T12:24:34;36.60;25.70
80560;DHT22;70065;42.700;23.316;2023-07-30T12:27:00;36.60;25.70
80560;DHT22;70065;42.700;23.316;2023-07-30T12:29:27;36.60;25.60
80560;DHT22;70065;42.700;23.316;2023-07-30T12:31:53;36.60;25.60
80560;DHT22;70065;42.700;23.316;2023-07-30T12:34:19;36.70;25.70
80560;DHT22;70065;42.700;23.316;2023-07-30T12:36:45;36.70;25.60
80560;DHT22;70065;42.700;23.316;2023-07-30T12:39:11;36.70;25.50
80560;DHT22;70065;42.700;23.316;2023-07-30T12:41:37;36.70;25.50
80560;DHT22;70065;42.700;23.316;2023-07-30T12:44:03;36.70;25.50
80560;DHT22;70065;42.700;23.316;2023-07-30T12:46:30;36.70;25.50
80560;DHT22;70065;42.700;23.316;2023-07-30T12:48:58;36.70;25.50
80560;DHT22;70065;42.700;23.316;2023-07-30T12:51:28;36.60;25.50
80560;DHT22;70065;42.700;23.316;2023-07-30T12:53:54;36.70;25.60
80560;DHT22;70065;42.700;23.316;2023-07-30T12:56:20;36.70;25.50
80560;DHT22;70065;42.700;23.316;2023-07-30T12:58:45;36.80;25.50
80560;DHT22;70065;42.700;23.316;2023-07-30T13:01:11;36.80;25.50
80560;DHT22;70065;42.700;23.316;2023-07-30T13:03:37;36.90;25.40
80560;DHT22;70065;42.700;23.316;2023-07-30T13:06:04;37.00;25.40
80560;DHT22;70065;42.700;23.316;2023-07-30T13:08:30;37.00;25.20
80560;DHT22;70065;42.700;23.316;2023-07-30T13:10:56;37.10;25.20
80560;DHT22;70065;42.700;23.316;2023-07-30T13:13:21;37.20;25.20
80560;DHT22;70065;42.700;23.316;2023-07-30T13:15:48;37.20;25.10
80560;DHT22;70065;42.700;23.316;2023-07-30T13:18:14;37.20;25.80
80560;DHT22;70065;42.700;23.316;2023-07-30T13:20:39;37.30;25.00
80560;DHT22;70065;42.700;23.316;2023-07-30T13:23:05;37.40;25.00
80560;DHT22;70065;42.700;23.316;2023-07-30T13:25:31;37.50;25.10
80560;DHT22;70065;42.700;23.316;2023-07-30T13:27:57;37.50;24.80
80560;DHT22;70065;42.700;23.316;2023-07-30T13:30:22;37.50;24.80
80560;DHT22;70065;42.700;23.316;2023-07-30T13:32:48;37.60;24.80
80560;DHT22;70065;42.700;23.316;2023-07-30T13:35:14;37.50;25.60
80560;DHT22;70065;42.700;23.316;2023-07-30T13:37:39;37.40;24.90
80560;DHT22;70065;42.700;23.316;2023-07-30T13:40:07;37.30;24.80
80560;DHT22;70065;42.700;23.316;2023-07-30T13:42:33;37.30;24.90
80560;DHT22;70065;42.700;23.316;2023-07-30T13:44:59;37.30;24.90
80560;DHT22;70065;42.700;23.316;2023-07-30T13:47:25;37.20;25.00
80560;DHT22;70065;42.700;23.316;2023-07-30T13:49:51;37.20;25.10
80560;DHT22;70065;42.700;23.316;2023-07-30T13:52:17;37.10;25.10
80560;DHT22;70065;42.700;23.316;2023-07-30T13:54:43;37.20;25.10
80560;DHT22;70065;42.700;23.316;2023-07-30T13:57:10;37.10;25.00
80560;DHT22;70065;42.700;23.316;2023-07-30T13:59:36;37.10;25.20
80560;DHT22;70065;42.700;23.316;2023-07-30T14:02:03;37.00;25.20
80560;DHT22;70065;42.700;23.316;2023-07-30T14:04:28;37.00;25.30
80560;DHT22;70065;42.700;23.316;2023-07-30T14:06:54;37.00;25.30
80560;DHT22;70065;42.700;23.316;2023-07-30T14:09:20;37.00;25.30
80560;DHT22;70065;42.700;23.316;2023-07-30T14:11:46;37.00;25.40
80560;DHT22;70065;42.700;23.316;2023-07-30T14:14:13;36.90;25.20
80560;DHT22;70065;42.700;23.316;2023-07-30T14:16:39;36.90;25.40
80560;DHT22;70065;42.700;23.316;2023-07-30T14:19:04;36.90;25.40
80560;DHT22;70065;42.700;23.316;2023-07-30T14:21:30;36.90;25.40
80560;DHT22;70065;42.700;23.316;2023-07-30T14:23:56;36.80;25.40
80560;DHT22;70065;42.700;23.316;2023-07-30T14:26:22;36.80;25.40
80560;DHT22;70065;42.700;23.316;2023-07-30T14:28:48;36.80;25.50
80560;DHT22;70065;42.700;23.316;2023-07-30T14:31:13;36.70;25.60
80560;DHT22;70065;42.700;23.316;2023-07-30T14:33:41;36.60;25.60
80560;DHT22;70065;42.700;23.316;2023-07-30T14:36:07;36.50;25.60
80560;DHT22;70065;42.700;23.316;2023-07-30T14:38:37;36.60;25.70
80560;DHT22;70065;42.700;23.316;2023-07-30T14:41:06;36.50;25.80
80560;DHT22;70065;42.700;23.316;2023-07-30T14:43:33;36.50;25.80
80560;DHT22;70065;42.700;23.316;2023-07-30T14:45:59;36.40;25.80
80560;DHT22;70065;42.700;23.316;2023-07-30T14:48:25;36.40;25.90
80560;DHT22;70065;42.700;23.316;2023-07-30T14:50:51;36.40;25.90
80560;DHT22;70065;42.700;23.316;2023-07-30T14:53:17;36.30;25.90
80560;DHT22;70065;42.700;23.316;2023-07-30T14:55:43;36.30;25.90
80560;DHT22;70065;42.700;23.316;2023-07-30T14:58:09;36.30;25.90
80560;DHT22;70065;42.700;23.316;2023-07-30T15:00:35;36.30;25.90
80560;DHT22;70065;42.700;23.316;2023-07-30T15:03:01;36.40;25.90
80560;DHT22;70065;42.700;23.316;2023-07-30T15:05:27;36.40;25.70
80560;DHT22;70065;42.700;23.316;2023-07-30T15:07:54;36.40;25.90
80560;DHT22;70065;42.700;23.316;2023-07-30T15:10:19;36.40;25.90
80560;DHT22;70065;42.700;23.316;2023-07-30T15:12:45;36.40;25.90